Time;durP1;ratioP1;P1;durP2;ratioP2;P2;SDS_P1;SDS_P2;PMS_P1;PMS_P2;Temp;Humidity;BMP_temperature;BMP_pressure;BME280_temperature;BME280_humidity;BME280_pressure;Samples;Min_cycle;Max_cycle;Signal;HPM_P1;HPM_P2
2022/03/21 00:00:38;;;;;;;6.92;4.08;;;;;;;;;;1943163;74;21031;-46
2022/03/21 00:03:07;;;;;;;5.67;3.42;;;;;;;;;;1943139;73;21065;-46
2022/03/21 00:05:36;;;;;;;5.28;3.37;;;;;;;;;;1943199;74;21023;-46
2022/03/21 00:08:06;;;;;;;6.28;3.60;;;;;;;;;;1943140;73;21120;-47
2022/03/21 00:10:35;;;;;;;5.37;3.60;;;;;;;;;;1943127;74;21031;-46
2022/03/21 00:13:04;;;;;;;5.47;3.12;;;;;;;;;;1943174;74;21091;-46
2022/03/21 00:15:32;;;;;;;8.28;3.80;;;;;;;;;;1943128;74;21019;-46
2022/03/21 00:18:04;;;;;;;6.15;4.22;;;;;;;;;;1943315;74;21094;-45
2022/03/21 00:20:33;;;;;;;5.35;3.42;;;;;;;;;;1943082;74;21027;-46
2022/03/21 00:23:02;;;;;;;5.85;3.98;;;;;;;;;;1943142;74;21031;-45
2022/03/21 00:25:31;;;;;;;3.08;2.77;;;;;;;;;;1943094;73;21023;-46
2022/03/21 00:28:00;;;;;;;6.20;3.50;;;;;;;;;;1943059;74;21027;-46
2022/03/21 00:30:29;;;;;;;4.47;3.67;;;;;;;;;;1943229;74;21110;-45
2022/03/21 00:32:58;;;;;;;4.90;3.80;;;;;;;;;;1943091;74;21023;-46
2022/03/21 00:35:27;;;;;;;6.87;3.87;;;;;;;;;;1943102;74;21183;-46
2022/03/21 00:37:55;;;;;;;5.58;3.60;;;;;;;;;;1943072;73;21023;-46
2022/03/21 00:40:29;;;;;;;7.28;4.40;;;;;;;;;;1943200;73;21019;-46
2022/03/21 00:42:58;;;;;;;6.97;4.08;;;;;;;;;;1943099;74;21509;-45
2022/03/21 00:45:28;;;;;;;6.00;3.72;;;;;;;;;;1943162;73;21023;-46
2022/03/21 00:47:56;;;;;;;8.73;4.37;;;;;;;;;;1943155;73;21094;-46
2022/03/21 00:50:25;;;;;;;4.70;3.75;;;;;;;;;;1943201;74;21105;-46
2022/03/21 00:52:55;;;;;;;6.53;4.92;;;;;;;;;;1943134;74;21075;-46
2022/03/21 00:55:29;;;;;;;7.28;4.20;;;;;;;;;;1943102;74;21023;-46
2022/03/21 00:57:55;;;;;;;7.03;4.20;;;;;;;;;;1941911;74;21559;-46
2022/03/21 01:00:25;;;;;;;8.50;4.12;;;;;;;;;;1943085;74;21100;-46
2022/03/21 01:02:54;;;;;;;6.60;3.92;;;;;;;;;;1943161;74;21019;-46
2022/03/21 01:05:23;;;;;;;4.92;3.85;;;;;;;;;;1943157;74;21109;-45
2022/03/21 01:07:52;;;;;;;7.45;4.70;;;;;;;;;;1939506;73;21160;-45
2022/03/21 01:10:21;;;;;;;6.90;4.87;;;;;;;;;;1935602;74;21000;-46
2022/03/21 01:12:51;;;;;;;5.60;3.87;;;;;;;;;;1935559;74;21012;-46
2022/03/21 01:15:21;;;;;;;6.50;3.92;;;;;;;;;;1935708;74;21089;-46
2022/03/21 01:17:50;;;;;;;10.10;4.55;;;;;;;;;;1935671;74;21081;-45
2022/03/21 01:20:20;;;;;;;7.70;4.95;;;;;;;;;;1935694;74;21089;-46
2022/03/21 01:22:49;;;;;;;5.17;4.00;;;;;;;;;;1935572;74;21493;-46
2022/03/21 01:25:18;;;;;;;5.17;3.50;;;;;;;;;;1935590;74;21032;-46
2022/03/21 01:27:47;;;;;;;10.40;4.92;;;;;;;;;;1935622;74;21024;-45
2022/03/21 01:30:16;;;;;;;6.12;4.12;;;;;;;;;;1935801;74;21031;-45
2022/03/21 01:32:45;;;;;;;6.10;4.40;;;;;;;;;;1935664;74;21077;-47
2022/03/21 01:35:16;;;;;;;8.35;5.50;;;;;;;;;;1935676;74;21011;-45
2022/03/21 01:37:45;;;;;;;8.63;4.42;;;;;;;;;;1935630;74;21019;-46
2022/03/21 01:40:14;;;;;;;7.90;4.45;;;;;;;;;;1935712;74;21082;-46
2022/03/21 01:42:46;;;;;;;6.53;4.22;;;;;;;;;;1935648;74;21023;-46
2022/03/21 01:45:14;;;;;;;6.83;5.40;;;;;;;;;;1935676;74;21535;-45
2022/03/21 01:47:43;;;;;;;6.53;4.85;;;;;;;;;;1935710;74;21059;-45
2022/03/21 01:50:12;;;;;;;6.17;3.98;;;;;;;;;;1935674;74;21081;-46
2022/03/21 01:52:42;;;;;;;8.13;4.72;;;;;;;;;;1935665;74;21023;-46
2022/03/21 01:58:00;;;;;;;8.23;4.95;;;;;;;;;;1828970;77;21146;-46
2022/03/21 02:00:29;;;;;;;7.00;5.25;;;;;;;;;;1828907;78;21060;-45
2022/03/21 02:02:58;;;;;;;6.58;4.35;;;;;;;;;;1868998;74;21093;-46
2022/03/21 02:05:28;;;;;;;7.53;5.10;;;;;;;;;;1935654;74;21035;-46
2022/03/21 02:07:56;;;;;;;9.13;5.45;;;;;;;;;;1935718;74;21109;-45
2022/03/21 02:10:26;;;;;;;10.00;5.95;;;;;;;;;;1935696;74;21035;-45
2022/03/21 02:12:54;;;;;;;11.12;5.85;;;;;;;;;;1935737;74;21016;-45
2022/03/21 02:15:23;;;;;;;9.53;5.87;;;;;;;;;;1935632;74;21016;-45
2022/03/21 02:17:53;;;;;;;9.23;4.40;;;;;;;;;;1935618;74;21110;-46
2022/03/21 02:20:24;;;;;;;8.65;4.95;;;;;;;;;;1934852;74;21109;-45
2022/03/21 02:22:54;;;;;;;7.75;5.33;;;;;;;;;;1935741;74;21445;-45
2022/03/21 02:25:30;;;;;;;8.28;5.83;;;;;;;;;;1935732;74;21012;-45
2022/03/21 02:28:00;;;;;;;8.40;5.60;;;;;;;;;;1935601;74;21101;-45
2022/03/21 02:30:30;;;;;;;5.60;4.40;;;;;;;;;;1935246;74;21090;-46
2022/03/21 02:33:00;;;;;;;9.68;5.80;;;;;;;;;;1935605;74;21486;-47
2022/03/21 02:35:29;;;;;;;7.15;5.15;;;;;;;;;;1935617;74;21093;-45
2022/03/21 02:37:58;;;;;;;7.10;5.22;;;;;;;;;;1935762;74;21097;-46
2022/03/21 02:40:27;;;;;;;7.17;5.20;;;;;;;;;;1935634;74;21022;-46
2022/03/21 02:42:55;;;;;;;8.13;5.33;;;;;;;;;;1935654;74;21084;-46
2022/03/21 02:45:24;;;;;;;7.45;5.60;;;;;;;;;;1935756;74;21027;-45
2022/03/21 02:47:53;;;;;;;6.25;5.22;;;;;;;;;;1935598;74;21132;-45
2022/03/21 02:50:26;;;;;;;7.87;5.37;;;;;;;;;;1935742;74;21028;-45
2022/03/21 02:52:55;;;;;;;8.70;5.47;;;;;;;;;;1927782;74;21012;-46
2022/03/21 02:55:24;;;;;;;8.50;5.22;;;;;;;;;;1935753;74;21101;-46
2022/03/21 02:57:53;;;;;;;8.23;5.67;;;;;;;;;;1935782;74;21091;-45
2022/03/21 03:00:22;;;;;;;14.83;4.87;;;;;;;;;;1935753;74;21473;-45
2022/03/21 03:02:51;;;;;;;8.98;5.58;;;;;;;;;;1935598;74;21039;-46
2022/03/21 03:05:19;;;;;;;9.63;6.05;;;;;;;;;;1935625;74;21035;-46
2022/03/21 03:07:48;;;;;;;9.48;6.00;;;;;;;;;;1935635;74;21039;-46
2022/03/21 03:10:17;;;;;;;10.60;5.58;;;;;;;;;;1948870;74;21027;-46
2022/03/21 03:12:46;;;;;;;14.33;5.83;;;;;;;;;;1948703;74;21097;-46
2022/03/21 03:15:14;;;;;;;11.20;7.78;;;;;;;;;;1948821;74;21015;-45
2022/03/21 03:17:43;;;;;;;13.50;10.58;;;;;;;;;;1948694;74;21066;-46
2022/03/21 03:20:12;;;;;;;12.80;7.25;;;;;;;;;;1948730;74;21097;-46
2022/03/21 03:22:41;;;;;;;13.18;7.58;;;;;;;;;;1948723;74;21038;-45
2022/03/21 03:25:10;;;;;;;8.78;6.05;;;;;;;;;;1948807;74;21015;-46
2022/03/21 03:27:39;;;;;;;34.15;16.90;;;;;;;;;;1948645;74;21027;-46
2022/03/21 03:30:08;;;;;;;12.95;9.45;;;;;;;;;;1948922;74;21035;-45
2022/03/21 03:32:39;;;;;;;20.62;10.30;;;;;;;;;;1948685;74;21035;-46
2022/03/21 03:35:07;;;;;;;9.90;6.67;;;;;;;;;;1948861;73;21566;-46
2022/03/21 03:37:36;;;;;;;10.48;7.58;;;;;;;;;;1948703;74;21092;-46
2022/03/21 03:40:06;;;;;;;12.35;6.90;;;;;;;;;;1948807;74;21035;-45
2022/03/21 03:42:35;;;;;;;13.40;6.97;;;;;;;;;;1948698;74;21026;-45
2022/03/21 03:45:03;;;;;;;10.50;6.25;;;;;;;;;;1948715;73;21062;-45
2022/03/21 03:47:32;;;;;;;14.18;7.08;;;;;;;;;;1948507;73;21082;-45
2022/03/21 03:50:01;;;;;;;10.63;6.12;;;;;;;;;;1948813;74;21109;-46
2022/03/21 03:52:30;;;;;;;11.22;6.80;;;;;;;;;;1948781;74;20995;-46
2022/03/21 03:55:02;;;;;;;10.60;6.65;;;;;;;;;;1948826;74;21011;-46
2022/03/21 03:57:28;;;;;;;15.65;7.00;;;;;;;;;;1948475;74;21468;-46
2022/03/21 03:59:57;;;;;;;10.43;6.15;;;;;;;;;;1948869;74;21034;-46
2022/03/21 04:02:26;;;;;;;10.13;6.35;;;;;;;;;;1948941;74;21007;-45
2022/03/21 04:04:55;;;;;;;9.03;6.55;;;;;;;;;;1948892;74;21038;-46
2022/03/21 04:07:24;;;;;;;7.87;6.40;;;;;;;;;;1948815;74;21014;-45
2022/03/21 04:09:53;;;;;;;9.43;6.58;;;;;;;;;;1940223;74;21086;-45
2022/03/21 04:12:22;;;;;;;10.10;6.78;;;;;;;;;;1935798;74;21063;-45
2022/03/21 04:14:51;;;;;;;15.03;6.53;;;;;;;;;;1935800;74;21023;-45
2022/03/21 04:17:20;;;;;;;12.75;7.55;;;;;;;;;;1935717;74;21088;-46
2022/03/21 04:19:48;;;;;;;9.48;6.50;;;;;;;;;;1935688;74;21027;-45
2022/03/21 04:22:17;;;;;;;12.00;7.30;;;;;;;;;;1935890;74;21077;-46
2022/03/21 04:24:46;;;;;;;8.73;6.05;;;;;;;;;;1935701;74;21027;-45
2022/03/21 04:27:14;;;;;;;8.53;6.05;;;;;;;;;;1935735;74;21077;-45
2022/03/21 04:29:43;;;;;;;8.43;6.28;;;;;;;;;;1935737;74;21081;-46
2022/03/21 04:32:12;;;;;;;7.50;5.80;;;;;;;;;;1935829;74;21019;-45
2022/03/21 04:34:41;;;;;;;9.40;6.65;;;;;;;;;;1935823;74;21069;-45
2022/03/21 04:37:10;;;;;;;9.43;5.30;;;;;;;;;;1935834;74;21552;-46
2022/03/21 04:39:38;;;;;;;11.90;6.33;;;;;;;;;;1935801;74;21031;-45
2022/03/21 04:42:07;;;;;;;12.45;5.87;;;;;;;;;;1935766;74;21089;-46
2022/03/21 04:44:36;;;;;;;10.45;7.10;;;;;;;;;;1935843;74;20999;-46
2022/03/21 04:47:05;;;;;;;8.48;5.67;;;;;;;;;;1935615;74;21093;-45
2022/03/21 04:49:34;;;;;;;6.60;4.97;;;;;;;;;;1935699;74;21093;-46
2022/03/21 04:52:03;;;;;;;6.58;4.65;;;;;;;;;;1935765;74;21082;-45
2022/03/21 04:54:32;;;;;;;8.23;4.00;;;;;;;;;;1935653;74;21027;-46
2022/03/21 04:57:00;;;;;;;8.23;5.28;;;;;;;;;;1935633;74;21027;-45
2022/03/21 04:59:29;;;;;;;4.15;3.75;;;;;;;;;;1935657;74;21011;-46
2022/03/21 05:01:58;;;;;;;7.47;5.45;;;;;;;;;;1935718;74;21132;-45
2022/03/21 05:04:26;;;;;;;9.65;5.78;;;;;;;;;;1935668;74;20995;-46
2022/03/21 05:06:55;;;;;;;12.00;4.37;;;;;;;;;;1935647;74;21019;-46
2022/03/21 05:09:24;;;;;;;6.62;4.60;;;;;;;;;;1937435;73;21035;-46
2022/03/21 05:11:53;;;;;;;4.37;3.95;;;;;;;;;;1943219;74;21071;-46
2022/03/21 05:14:22;;;;;;;4.17;2.62;;;;;;;;;;1943204;73;20995;-46
2022/03/21 05:16:50;;;;;;;5.83;4.08;;;;;;;;;;1943152;74;21093;-46
2022/03/21 05:19:19;;;;;;;7.83;5.12;;;;;;;;;;1943257;74;21097;-46
2022/03/21 05:21:48;;;;;;;5.85;4.45;;;;;;;;;;1943122;74;21030;-46
2022/03/21 05:32:37;;;;;;;8.43;4.58;;;;;;;;;;1943124;74;21089;-47
2022/03/21 05:37:52;;;;;;;9.08;5.28;;;;;;;;;;1943167;73;21100;-46
2022/03/21 05:40:35;;;;;;;9.50;5.30;;;;;;;;;;1943275;74;21047;-46
2022/03/21 05:43:03;;;;;;;13.75;7.70;;;;;;;;;;1943186;74;21071;-45
2022/03/21 05:45:32;;;;;;;11.57;6.17;;;;;;;;;;1943259;74;21026;-45
2022/03/21 05:50:47;;;;;;;7.42;5.58;;;;;;;;;;1943231;73;21038;-46
2022/03/21 05:53:16;;;;;;;8.48;5.05;;;;;;;;;;1943191;74;21027;-46
2022/03/21 05:55:45;;;;;;;12.28;6.45;;;;;;;;;;1943220;74;21027;-45
2022/03/21 05:58:14;;;;;;;25.95;10.08;;;;;;;;;;1943002;74;21066;-45
2022/03/21 06:00:43;;;;;;;8.50;5.28;;;;;;;;;;1942971;74;21136;-46
2022/03/21 06:03:12;;;;;;;10.03;6.72;;;;;;;;;;1943037;74;21026;-46
2022/03/21 06:05:41;;;;;;;8.23;5.78;;;;;;;;;;1943110;74;21031;-45
2022/03/21 06:08:09;;;;;;;10.82;7.22;;;;;;;;;;1943026;74;21015;-46
2022/03/21 06:10:38;;;;;;;7.80;4.90;;;;;;;;;;1938990;73;21047;-45
2022/03/21 06:13:08;;;;;;;6.97;5.00;;;;;;;;;;1935739;74;21019;-46
2022/03/21 06:15:37;;;;;;;9.35;5.75;;;;;;;;;;1935772;74;20991;-46
2022/03/21 06:18:13;;;;;;;4.47;3.15;;;;;;;;;;1935844;74;21020;-46
2022/03/21 06:20:42;;;;;;;10.35;5.85;;;;;;;;;;1935833;74;21504;-47
2022/03/21 06:23:11;;;;;;;5.67;3.77;;;;;;;;;;1935654;74;21015;-45
2022/03/21 06:25:40;;;;;;;5.78;4.33;;;;;;;;;;1935711;74;21031;-45
2022/03/21 06:28:09;;;;;;;8.83;4.22;;;;;;;;;;1935669;74;21089;-46
2022/03/21 06:30:38;;;;;;;7.05;5.70;;;;;;;;;;1935765;74;21023;-46
2022/03/21 06:33:07;;;;;;;6.42;5.00;;;;;;;;;;1935748;74;21023;-46
2022/03/21 06:35:35;;;;;;;10.60;5.25;;;;;;;;;;1935734;74;21027;-45
2022/03/21 06:38:04;;;;;;;14.60;6.62;;;;;;;;;;1935753;74;21027;-45
2022/03/21 06:40:33;;;;;;;7.10;5.28;;;;;;;;;;1935781;74;20988;-46
2022/03/21 06:43:02;;;;;;;9.73;4.65;;;;;;;;;;1935857;74;21086;-47
2022/03/21 06:45:32;;;;;;;7.40;5.22;;;;;;;;;;1935865;74;21172;-47
2022/03/21 06:48:00;;;;;;;5.25;4.17;;;;;;;;;;1935640;74;21080;-46
2022/03/21 06:50:29;;;;;;;5.78;3.52;;;;;;;;;;1935684;74;21089;-46
2022/03/21 06:52:57;;;;;;;11.40;4.72;;;;;;;;;;1935738;74;21097;-45
2022/03/21 06:55:30;;;;;;;7.53;4.83;;;;;;;;;;1935704;74;21007;-45
2022/03/21 06:57:58;;;;;;;8.93;5.90;;;;;;;;;;1935663;74;21027;-47
2022/03/21 07:00:27;;;;;;;7.47;4.90;;;;;;;;;;1935768;74;21031;-47
2022/03/21 07:02:56;;;;;;;7.50;5.00;;;;;;;;;;1935695;74;21031;-45
2022/03/21 07:05:26;;;;;;;8.48;5.40;;;;;;;;;;1935732;74;21386;-46
2022/03/21 07:07:54;;;;;;;21.05;5.70;;;;;;;;;;1934322;74;21080;-49
2022/03/21 07:10:23;;;;;;;4.75;3.67;;;;;;;;;;1934916;74;21047;-46
2022/03/21 07:12:52;;;;;;;5.97;3.70;;;;;;;;;;1935018;74;21063;-48
2022/03/21 07:15:21;;;;;;;5.75;4.08;;;;;;;;;;1934981;74;21093;-50
2022/03/21 07:17:51;;;;;;;7.87;5.28;;;;;;;;;;1935189;74;21039;-52
2022/03/21 07:20:20;;;;;;;4.95;3.87;;;;;;;;;;1935317;74;21035;-49
2022/03/21 07:22:49;;;;;;;4.97;3.15;;;;;;;;;;1935032;74;21023;-49
2022/03/21 07:25:17;;;;;;;4.37;3.37;;;;;;;;;;1935234;74;21315;-49
2022/03/21 07:27:46;;;;;;;5.28;4.75;;;;;;;;;;1935029;74;21145;-48
2022/03/21 07:30:16;;;;;;;6.30;3.98;;;;;;;;;;1934935;74;21140;-48
2022/03/21 07:32:44;;;;;;;3.47;3.17;;;;;;;;;;1935073;74;21083;-46
2022/03/21 07:35:13;;;;;;;4.30;2.75;;;;;;;;;;1935205;74;21081;-47
2022/03/21 07:37:43;;;;;;;6.15;4.05;;;;;;;;;;1934775;74;21059;-47
2022/03/21 07:40:12;;;;;;;5.25;3.95;;;;;;;;;;1934928;74;21043;-48
2022/03/21 07:42:44;;;;;;;3.77;3.17;;;;;;;;;;1935078;74;21089;-47
2022/03/21 07:48:01;;;;;;;4.85;3.70;;;;;;;;;;1935023;74;21039;-48
2022/03/21 07:50:30;;;;;;;8.33;2.95;;;;;;;;;;1935226;74;21117;-47
2022/03/21 07:52:59;;;;;;;5.35;3.47;;;;;;;;;;1934916;74;21035;-49
2022/03/21 07:55:31;;;;;;;7.03;4.30;;;;;;;;;;1935062;74;21121;-47
2022/03/21 07:57:59;;;;;;;4.92;2.87;;;;;;;;;;1934814;74;21497;-47
2022/03/21 08:00:30;;;;;;;5.35;3.72;;;;;;;;;;1902914;74;21141;-47
2022/03/21 08:02:59;;;;;;;5.17;3.52;;;;;;;;;;1906743;74;21005;-47
2022/03/21 08:05:31;;;;;;;19.02;4.12;;;;;;;;;;1903012;75;21486;-47
2022/03/21 08:07:59;;;;;;;5.62;3.95;;;;;;;;;;1904994;74;21040;-47
2022/03/21 08:10:29;;;;;;;3.55;2.95;;;;;;;;;;1907058;74;21127;-51
2022/03/21 08:12:58;;;;;;;3.25;2.80;;;;;;;;;;1897005;75;21135;-52
2022/03/21 08:15:27;;;;;;;5.85;3.72;;;;;;;;;;1894320;75;21002;-47
2022/03/21 08:18:05;;;;;;;8.08;4.58;;;;;;;;;;1898188;75;21009;-50
2022/03/21 08:20:38;;;;;;;6.30;3.60;;;;;;;;;;1893532;75;21026;-47
2022/03/21 08:23:08;;;;;;;5.58;4.05;;;;;;;;;;1895753;75;21022;-48
2022/03/21 08:25:37;;;;;;;5.45;3.37;;;;;;;;;;1891104;75;21009;-52
2022/03/21 08:28:07;;;;;;;4.90;3.87;;;;;;;;;;1881356;76;21013;-50
2022/03/21 08:30:37;;;;;;;5.47;3.52;;;;;;;;;;1881512;75;21029;-56
2022/03/21 08:33:06;;;;;;;4.28;3.42;;;;;;;;;;1881399;76;21471;-49
2022/03/21 08:35:39;;;;;;;7.62;4.62;;;;;;;;;;1880447;76;21558;-50
2022/03/21 08:38:08;;;;;;;4.75;3.33;;;;;;;;;;1881558;76;21080;-51
2022/03/21 08:40:37;;;;;;;8.75;5.10;;;;;;;;;;1881576;76;20999;-48
2022/03/21 08:43:06;;;;;;;8.63;4.33;;;;;;;;;;1881701;76;21021;-48
2022/03/21 08:45:36;;;;;;;7.92;4.20;;;;;;;;;;1881497;75;21069;-48
2022/03/21 08:48:05;;;;;;;6.00;4.58;;;;;;;;;;1880633;76;21151;-48
2022/03/21 08:50:34;;;;;;;7.45;4.08;;;;;;;;;;1881850;76;21103;-50
2022/03/21 08:53:03;;;;;;;4.83;3.17;;;;;;;;;;1881566;75;21022;-50
2022/03/21 08:55:32;;;;;;;3.40;3.10;;;;;;;;;;1895492;75;21065;-53
2022/03/21 08:58:01;;;;;;;6.08;4.30;;;;;;;;;;1914234;75;21096;-48
2022/03/21 09:00:30;;;;;;;6.35;3.40;;;;;;;;;;1914008;74;21100;-47
2022/03/21 09:02:59;;;;;;;6.60;2.95;;;;;;;;;;1914137;75;21075;-51
2022/03/21 09:05:27;;;;;;;6.05;3.10;;;;;;;;;;1914181;74;21030;-53
2022/03/21 09:07:56;;;;;;;3.83;3.17;;;;;;;;;;1913813;74;21026;-47
2022/03/21 09:10:25;;;;;;;6.03;3.87;;;;;;;;;;1914069;75;21163;-50
2022/03/21 09:12:54;;;;;;;8.68;3.92;;;;;;;;;;1903351;74;21093;-52
2022/03/21 09:15:25;;;;;;;7.40;3.22;;;;;;;;;;1901533;75;20995;-48
2022/03/21 09:17:53;;;;;;;3.08;2.72;;;;;;;;;;1901561;75;21512;-49
2022/03/21 09:20:22;;;;;;;6.25;3.62;;;;;;;;;;1901444;75;21021;-51
2022/03/21 09:22:50;;;;;;;5.22;2.77;;;;;;;;;;1901478;75;20991;-49
2022/03/21 09:25:19;;;;;;;2.22;1.92;;;;;;;;;;1901558;75;21042;-54
2022/03/21 09:27:48;;;;;;;5.15;2.92;;;;;;;;;;1901247;74;21088;-52
2022/03/21 09:30:17;;;;;;;4.00;3.17;;;;;;;;;;1901398;74;21024;-51
2022/03/21 09:32:46;;;;;;;3.90;3.02;;;;;;;;;;1901547;75;21077;-53
2022/03/21 09:35:15;;;;;;;3.77;2.77;;;;;;;;;;1901424;75;21120;-52
2022/03/21 09:37:43;;;;;;;6.58;3.37;;;;;;;;;;1901442;75;20990;-48
2022/03/21 09:40:13;;;;;;;2.83;2.50;;;;;;;;;;1901463;75;21084;-48
2022/03/21 09:42:41;;;;;;;3.25;2.40;;;;;;;;;;1901315;75;21101;-50
2022/03/21 09:45:11;;;;;;;3.33;2.22;;;;;;;;;;1901377;74;20987;-51
2022/03/21 09:50:30;;;;;;;3.25;2.65;;;;;;;;;;1901556;75;21080;-48
2022/03/21 09:52:59;;;;;;;3.25;2.35;;;;;;;;;;1901474;75;21015;-50
2022/03/21 09:55:28;;;;;;;3.87;2.58;;;;;;;;;;1901542;75;21007;-48
2022/03/21 09:57:56;;;;;;;2.67;1.82;;;;;;;;;;1901436;75;21118;-49
2022/03/21 10:00:26;;;;;;;4.47;3.20;;;;;;;;;;1901799;75;21038;-52
2022/03/21 10:02:55;;;;;;;3.85;2.05;;;;;;;;;;1901550;75;21123;-53
2022/03/21 10:05:33;;;;;;;3.67;2.42;;;;;;;;;;1901534;75;21002;-52
2022/03/21 10:08:23;;;;;;;3.15;2.62;;;;;;;;;;1901462;75;21019;-54
2022/03/21 10:10:52;;;;;;;2.98;2.30;;;;;;;;;;1901296;75;21002;-50
2022/03/21 10:13:22;;;;;;;11.12;2.77;;;;;;;;;;1908768;74;21057;-53
2022/03/21 10:15:52;;;;;;;2.25;1.82;;;;;;;;;;1914271;75;21135;-53
2022/03/21 10:18:21;;;;;;;2.95;2.37;;;;;;;;;;1911037;75;21068;-56
2022/03/21 10:20:50;;;;;;;23.65;5.03;;;;;;;;;;1914223;75;20998;-55
2022/03/21 10:23:20;;;;;;;5.65;4.45;;;;;;;;;;1914152;75;21018;-55
2022/03/21 10:25:48;;;;;;;4.65;3.02;;;;;;;;;;1913978;74;21099;-53
2022/03/21 10:28:34;;;;;;;3.12;2.55;;;;;;;;;;1914312;75;21120;-49
2022/03/21 10:31:03;;;;;;;4.72;3.52;;;;;;;;;;1913272;75;21594;-55
2022/03/21 10:33:32;;;;;;;4.90;3.40;;;;;;;;;;1914179;74;21116;-49
2022/03/21 10:36:05;;;;;;;7.03;3.45;;;;;;;;;;1914141;75;21069;-49
2022/03/21 10:38:34;;;;;;;14.93;4.97;;;;;;;;;;1914112;74;21452;-49
2022/03/21 10:41:07;;;;;;;7.10;4.70;;;;;;;;;;1914326;75;21456;-51
2022/03/21 10:43:36;;;;;;;4.70;3.62;;;;;;;;;;1914086;75;21065;-53
2022/03/21 10:46:06;;;;;;;5.00;3.85;;;;;;;;;;1914040;75;21068;-51
2022/03/21 10:48:35;;;;;;;4.85;3.58;;;;;;;;;;1914085;74;21057;-52
2022/03/21 10:51:04;;;;;;;8.63;5.20;;;;;;;;;;1914180;75;21073;-50
2022/03/21 10:53:37;;;;;;;4.20;3.52;;;;;;;;;;1914242;75;21143;-52
2022/03/21 10:56:12;;;;;;;7.00;3.08;;;;;;;;;;1914061;75;21014;-54
2022/03/21 10:58:42;;;;;;;5.97;3.30;;;;;;;;;;1914387;74;21087;-55
2022/03/21 11:01:18;;;;;;;3.37;2.25;;;;;;;;;;1914046;75;21087;-53
2022/03/21 11:03:56;;;;;;;2.87;2.37;;;;;;;;;;1914060;75;21010;-55
2022/03/21 11:06:19;;;;;;;3.02;2.12;;;;;;;;;;1911388;75;21534;-49
2022/03/21 11:08:50;;;;;;;34.63;6.00;;;;;;;;;;1914256;74;21057;-56
2022/03/21 11:11:18;;;;;;;5.67;2.37;;;;;;;;;;1914286;74;21537;-52
2022/03/21 11:13:48;;;;;;;2.10;1.87;;;;;;;;;;1914042;75;21042;-54
2022/03/21 11:16:17;;;;;;;4.12;2.27;;;;;;;;;;1914364;75;21065;-54
2022/03/21 11:18:46;;;;;;;5.70;3.22;;;;;;;;;;1914287;75;20991;-47
2022/03/21 11:21:15;;;;;;;3.67;3.00;;;;;;;;;;1913942;75;21057;-52
2022/03/21 11:23:43;;;;;;;4.42;2.27;;;;;;;;;;1914279;75;21006;-48
2022/03/21 11:26:31;;;;;;;3.33;2.30;;;;;;;;;;1914177;75;21053;-50
2022/03/21 11:29:19;;;;;;;11.05;3.62;;;;;;;;;;1914007;74;21065;-48
2022/03/21 11:31:51;;;;;;;2.77;2.20;;;;;;;;;;1914152;75;21041;-47
2022/03/21 11:34:23;;;;;;;5.45;3.35;;;;;;;;;;1914195;74;21085;-49
2022/03/21 11:36:59;;;;;;;5.22;3.33;;;;;;;;;;1913650;75;21010;-49
2022/03/21 11:39:27;;;;;;;5.20;2.08;;;;;;;;;;1914250;74;21073;-51
2022/03/21 11:42:06;;;;;;;3.25;2.95;;;;;;;;;;1913788;74;21147;-49
2022/03/21 11:44:33;;;;;;;2.02;1.87;;;;;;;;;;1914060;74;21103;-48
2022/03/21 11:47:22;;;;;;;3.85;2.60;;;;;;;;;;1914161;75;21065;-46
2022/03/21 12:10:41;;;;;;;3.92;3.15;;;8.90;36.50;;;;;;1958301;73;26264;-53
2022/03/21 12:13:11;;;;;;;5.80;4.15;;;8.90;38.30;;;;;;1917780;75;21152;-56
2022/03/21 12:15:42;;;;;;;4.33;3.60;;;8.90;39.10;;;;;;1917679;75;21081;-48
2022/03/21 12:18:12;;;;;;;6.25;4.50;;;8.90;38.40;;;;;;1915427;74;21508;-51
2022/03/21 12:20:50;;;;;;;4.08;3.37;;;8.90;38.90;;;;;;1917730;75;21093;-50
2022/03/21 12:23:21;;;;;;;19.80;5.72;;;8.90;39.20;;;;;;1917756;74;21520;-48
2022/03/21 12:25:52;;;;;;;5.62;4.78;;;8.90;39.70;;;;;;1917619;74;21007;-54
2022/03/21 12:34:39;;;;;;;5.20;4.00;;;9.10;37.20;;;;;;1973167;73;25498;-54
2022/03/21 12:37:30;;;;;;;7.72;5.15;;;9.10;38.30;;;;;;1948467;73;21102;-56
2022/03/21 12:40:03;;;;;;;6.67;5.08;;;9.10;40.00;;;;;;1948185;73;21144;-53
2022/03/21 12:42:33;;;;;;;6.28;5.45;;;9.10;40.10;;;;;;1948356;73;21104;-52
2022/03/21 12:45:03;;;;;;;5.72;4.72;;;9.20;40.30;;;;;;1948541;73;21156;-55
2022/03/21 12:47:33;;;;;;;6.05;5.45;;;9.20;39.90;;;;;;1948179;73;21082;-46
2022/03/21 12:50:04;;;;;;;8.63;5.72;;;9.30;40.00;;;;;;1948606;73;21038;-47
2022/03/21 12:52:34;;;;;;;8.05;5.90;;;9.30;39.80;;;;;;1948457;73;21046;-51
2022/03/21 12:55:05;;;;;;;6.25;4.42;;;9.40;39.00;;;;;;1948323;73;21088;-51
2022/03/21 12:57:39;;;;;;;9.90;6.58;;;9.40;38.20;;;;;;1948628;73;21074;-54
